Latest Weather Observations for Halls Creek

IDW60801

Issued at 11:03 pm WST Friday 19 July 2024 (issued every 10 minutes, with the page automatically refreshed every 10 minutes)

About weather observations | Map of weather stations | Latest weather observations for WA | Other Formats
Station Details ID: 002079 Name: HALLS CREEK AIRPORT Lat: -18.23 Lon: 127.67 Height: 409.4 m
Data from the previous 72 hours. | See also: Recent months at Halls Creek
Date/Time
WST
Temp
°C
App
Temp
°C
Dew
Point
°C
Rel
Hum
%
Delta-T
°C
Wind Press
QNH
hPa
Press
MSL
hPa
Rain since
9am
mm
Dir  Spd
km/h
Gust
km/h
Spd
kts
Gust
kts
19/11:00pm 9.2 7.0 -1.8 46 4.3 CALM 0 0 0 0 1019.9 1018.5 0.0
19/10:30pm 9.7 6.7 -1.6 45 4.5 SW 4 7 2 4 1019.8 1018.4 0.0
19/10:00pm 10.1 6.7 -1.9 43 4.7 SW 6 7 3 4 1019.7 1018.3 0.0
19/09:30pm 10.7 8.4 -2.0 41 5.0 CALM 0 4 0 2 1019.7 1018.3 0.0
19/09:00pm 10.9 8.7 -1.5 42 5.0 CALM 0 0 0 0 1019.8 1018.4 0.0
19/08:30pm 10.5 8.3 -1.5 43 4.8 CALM 0 0 0 0 1019.9 1018.5 0.0
19/08:00pm 11.2 9.0 -1.9 40 5.2 CALM 0 0 0 0 1019.6 1018.2 0.0
19/07:30pm 12.2 9.9 -2.4 36 5.8 CALM 0 0 0 0 1019.5 1018.1 0.0
19/07:00pm 13.1 10.7 -2.8 33 6.3 CALM 0 0 0 0 1019.4 1018.0 0.0
19/06:30pm 14.3 12.0 -2.6 31 6.9 CALM 0 0 0 0 1019.1 1017.7 0.0
19/06:00pm 15.6 13.3 -2.3 29 7.4 CALM 0 0 0 0 1018.8 1017.4 0.0
19/05:30pm 18.3 14.6 -3.2 23 9.0 E 7 9 4 5 1018.6 1017.2 0.0
19/05:00pm 21.8 17.5 -5.1 16 11.1 ESE 9 11 5 6 1018.4 1017.0 0.0
19/04:30pm 24.2 20.2 -5.9 13 12.6 SE 7 13 4 7 1018.3 1016.9 0.0
19/04:00pm 24.7 19.4 -7.7 11 13.1 SE 13 17 7 9 1018.2 1016.7 0.0
19/03:30pm 25.1 21.1 -7.4 11 13.3 S 6 13 3 7 1018.3 1016.9 0.0
19/03:00pm 25.4 20.2 -6.0 12 13.2 ESE 13 17 7 9 1018.2 1016.7 0.0
19/02:30pm 25.1 20.0 -5.2 13 12.9 SE 13 17 7 9 1018.2 1016.7 0.0
19/02:00pm 25.0 20.4 -4.3 14 12.7 SSE 11 20 6 11 1018.4 1017.0 0.0
19/01:30pm 24.6 20.6 -5.6 13 12.7 ESE 7 15 4 8 1018.8 1017.4 0.0
19/01:00pm 24.6 20.4 -3.7 15 12.3 E 9 17 5 9 1019.3 1017.9 0.0
19/12:30pm 24.5 20.9 -3.8 15 12.3 NW 6 13 3 7 1019.8 1018.4 0.0
19/12:00pm 23.5 19.4 -2.9 17 11.6 SE 9 17 5 9 1020.5 1019.1 0.0
19/11:30am 23.2 18.9 -1.7 19 11.2 ESE 11 20 6 11 1021.0 1019.6 0.0
19/11:00am 22.8 19.3 -1.3 20 10.8 ESE 7 13 4 7 1021.6 1020.2 0.0
19/10:30am 21.7 17.9 -0.9 22 10.2 ENE 9 15 5 8 1022.3 1020.9 0.0
19/10:00am 21.4 16.9 -0.6 23 9.9 ENE 13 19 7 10 1022.5 1021.2 0.0
19/09:30am 20.1 15.2 -0.5 25 9.2 NE 15 20 8 11 1022.7 1021.4 0.0
19/09:00am 19.1 14.2 -0.3 27 8.6 NE 15 20 8 11 1023.1 1021.7 0.0
19/08:30am 17.5 13.5 0.2 31 7.7 NE 11 17 6 9 1023.3 1021.9 0.0
19/08:00am 15.8 12.2 0.4 35 6.7 NE 9 13 5 7 1023.5 1022.1 0.0
19/07:30am 12.7 9.4 0.1 42 5.3 ENE 7 9 4 5 1023.3 1021.9 0.0
19/07:00am 10.8 8.9 0.5 49 4.3 CALM 0 0 0 0 1022.7 1021.4 0.0
19/06:30am 6.1 4.3 1.4 72 1.9 CALM 0 0 0 0 1022.3 1020.9 0.0
19/06:00am 4.0 2.0 -0.2 74 1.6 CALM 0 0 0 0 1021.8 1020.4 0.0
19/05:30am 4.0 2.0 -0.4 73 1.7 CALM 0 0 0 0 1021.5 1020.1 0.0
19/05:00am 3.9 1.9 -0.3 74 1.6 CALM 0 0 0 0 1021.2 1019.8 0.0
19/04:30am 3.8 1.7 -0.8 72 1.7 CALM 0 0 0 0 1020.9 1019.5 0.0
19/04:00am 4.3 2.2 -0.7 70 1.9 CALM 0 0 0 0 1020.6 1019.2 0.0
19/03:30am 4.7 2.7 -0.3 70 1.9 CALM 0 0 0 0 1020.4 1019.0 0.0
19/03:00am 4.8 2.8 -0.4 69 2.0 CALM 0 0 0 0 1020.4 1019.0 0.0
19/02:30am 5.1 3.0 -0.7 66 2.2 CALM 0 0 0 0 1020.5 1019.1 0.0
19/02:00am 5.9 3.9 -0.4 64 2.5 CALM 0 0 0 0 1020.6 1019.2 0.0
19/01:30am 6.4 4.4 -0.3 62 2.6 CALM 0 0 0 0 1020.4 1019.0 0.0
19/01:00am 7.2 4.8 -0.5 58 3.0 SW 2 7 1 4 1020.6 1019.2 0.0
19/12:30am 7.5 5.5 -0.2 58 3.1 CALM 0 0 0 0 1020.7 1019.3 0.0
19/12:00am 8.1 6.1 -0.1 56 3.3 CALM 0 0 0 0 1020.4 1019.0 0.0
 
Date/Time
WST
Temp
°C
App
Temp
°C
Dew
Point
°C
Rel
Hum
%
Delta-T
°C
Wind Press
QNH
hPa
Press
MSL
hPa
Rain since
9am
mm
Dir  Spd
km/h
Gust
km/h
Spd
kts
Gust
kts
18/11:30pm 8.7 6.7 -0.1 54 3.6 CALM 0 0 0 0 1020.5 1019.1 0.0
18/11:00pm 9.5 7.5 -0.4 50 4.0 CALM 0 0 0 0 1020.7 1019.3 0.0
18/10:30pm 9.5 6.4 0.1 52 3.9 ESE 6 7 3 4 1020.9 1019.5 0.0
18/10:00pm 8.6 6.5 -0.7 52 3.7 CALM 0 0 0 0 1021.2 1019.8 0.0
18/09:30pm 9.5 7.5 -0.4 50 4.0 CALM 0 6 0 3 1021.3 1019.9 0.0
18/09:00pm 9.6 7.6 -0.3 50 4.0 CALM 0 0 0 0 1021.2 1019.8 0.0
18/08:30pm 10.0 8.0 -0.2 49 4.2 CALM 0 0 0 0 1021.1 1019.7 0.0
18/08:00pm 10.8 8.8 -0.3 46 4.6 CALM 0 0 0 0 1020.9 1019.5 0.0
18/07:30pm 11.5 9.4 -0.6 43 5.0 CALM 0 0 0 0 1020.5 1019.1 0.0
18/07:00pm 12.2 10.1 -0.6 41 5.3 CALM 0 0 0 0 1020.4 1019.0 0.0
18/06:30pm 13.2 11.1 -0.8 38 5.8 CALM 0 0 0 0 1020.0 1018.6 0.0
18/06:00pm 14.5 12.4 -0.8 35 6.5 CALM 0 0 0 0 1019.9 1018.5 0.0
18/05:30pm 16.7 14.2 -0.9 30 7.6 E 2 6 1 3 1019.9 1018.5 0.0
18/05:00pm 20.5 16.8 -2.5 21 9.9 E 7 9 4 5 1019.6 1018.2 0.0
18/04:30pm 22.2 17.2 -4.0 17 11.1 NE 13 17 7 9 1019.3 1017.9 0.0
18/04:00pm 22.9 18.4 -3.4 17 11.4 ENE 11 15 6 8 1019.0 1017.6 0.0
18/03:30pm 23.1 18.5 -4.1 16 11.6 NE 11 17 6 9 1018.9 1017.5 0.0
18/03:00pm 23.6 17.9 -3.7 16 11.8 ENE 17 28 9 15 1018.9 1017.5 0.0
18/02:30pm 23.6 17.9 -3.7 16 11.8 ENE 17 26 9 14 1019.0 1017.6 0.0
18/02:00pm 23.3 17.0 -3.9 16 11.7 ENE 20 33 11 18 1019.1 1017.7 0.0
18/01:30pm 23.4 17.7 -3.8 16 11.7 NE 17 28 9 15 1019.5 1018.1 0.0
18/01:00pm 22.6 17.0 -2.9 18 11.1 NNE 17 28 9 15 1019.9 1018.5 0.0
18/12:30pm 22.4 16.4 -1.6 20 10.7 NNE 20 30 11 16 1020.5 1019.1 0.0
18/12:00pm 21.8 15.0 -2.1 20 10.5 NNE 24 33 13 18 1021.0 1019.6 0.0
18/11:30am 21.1 13.9 -2.0 21 10.1 NNE 26 37 14 20 1021.7 1020.3 0.0
18/11:00am 20.9 13.8 -1.6 22 9.9 N 26 39 14 21 1022.0 1020.6 0.0
18/10:30am 20.1 11.9 -1.1 24 9.4 N 32 44 17 24 1022.4 1021.0 0.0
18/10:11am 19.4 10.2 -1.1 25 9.0 NNE 37 48 20 26 1022.5 1021.2 0.0
18/10:00am 19.4 11.0 -1.1 25 9.0 ENE 33 43 18 23 1022.5 1021.2 0.0
18/09:30am 19.2 10.3 -1.8 24 9.1 ENE 35 46 19 25 1023.1 1021.7 0.0
18/09:00am 18.6 10.1 -1.8 25 8.7 ENE 33 44 18 24 1023.2 1021.8 0.0
18/08:32am 17.8 9.0 -1.4 27 8.3 ENE 35 54 19 29 1023.3 1021.9 0.0
18/08:30am 18.1 9.9 -1.2 27 8.4 ENE 32 46 17 25 1023.3 1021.9 0.0
18/08:00am 16.9 9.5 -0.8 30 7.6 ENE 28 41 15 22 1023.2 1021.8 0.0
18/07:30am 15.3 9.9 1.1 38 6.3 ENE 19 24 10 13 1022.7 1021.4 0.0
18/07:00am 12.2 8.3 1.2 47 4.7 NE 11 13 6 7 1022.5 1021.2 0.0
18/06:30am 8.7 5.6 1.4 60 3.1 ESE 7 11 4 6 1022.1 1020.7 0.0
18/06:00am 6.2 2.9 0.3 66 2.3 NE 7 7 4 4 1021.8 1020.4 0.0
18/05:30am 7.2 4.1 0.4 62 2.7 E 6 7 3 4 1021.7 1020.3 0.0
18/05:00am 8.0 4.9 0.3 58 3.1 E 6 7 3 4 1021.4 1020.0 0.0
18/04:30am 8.3 5.0 0.1 56 3.3 E 7 11 4 6 1021.1 1019.7 0.0
18/04:00am 9.2 5.9 0.1 53 3.7 ENE 7 9 4 5 1020.8 1019.4 0.0
18/03:30am 8.2 4.2 0.2 57 3.3 E 11 13 6 7 1020.7 1019.3 0.0
18/03:00am 8.4 5.3 -0.1 55 3.4 E 6 7 3 4 1020.8 1019.4 0.0
18/02:30am 9.5 6.1 -0.4 50 4.0 ESE 7 9 4 5 1020.8 1019.4 0.0
18/02:00am 11.4 7.6 -0.4 44 4.9 E 9 13 5 7 1021.0 1019.6 0.0
18/01:30am 11.4 7.3 -0.4 44 4.9 ESE 11 15 6 8 1021.1 1019.7 0.0
18/01:00am 11.7 7.2 -0.4 43 5.0 SE 13 17 7 9 1021.5 1020.1 0.0
18/12:30am 12.0 7.9 -0.5 42 5.2 ESE 11 13 6 7 1021.8 1020.4 0.0
18/12:00am 12.7 8.5 -0.9 39 5.6 ESE 11 13 6 7 1021.7 1020.3 0.0
 
Date/Time
WST
Temp
°C
App
Temp
°C
Dew
Point
°C
Rel
Hum
%
Delta-T
°C
Wind Press
QNH
hPa
Press
MSL
hPa
Rain since
9am
mm
Dir  Spd
km/h
Gust
km/h
Spd
kts
Gust
kts
17/11:30pm 13.1 8.5 -1.2 37 5.9 ESE 13 15 7 8 1021.8 1020.4 0.0
17/11:00pm 12.9 8.7 -0.7 39 5.7 SE 11 13 6 7 1021.9 1020.5 0.0
17/10:30pm 13.0 8.8 -1.0 38 5.8 ESE 11 11 6 6 1022.0 1020.6 0.0
17/10:00pm 14.5 9.9 -1.2 34 6.6 ESE 13 17 7 9 1021.9 1020.5 0.0
17/09:30pm 14.0 9.8 -0.8 36 6.2 ESE 11 13 6 7 1021.9 1020.5 0.0
17/09:00pm 14.3 9.7 -0.9 35 6.4 ESE 13 15 7 8 1021.7 1020.3 0.0
17/08:30pm 13.5 9.0 -0.2 39 5.8 ESE 13 15 7 8 1021.6 1020.2 0.0
17/08:00pm 13.1 9.8 0.2 41 5.5 ESE 7 11 4 6 1021.3 1019.9 0.0
17/07:30pm 14.1 10.3 -0.7 36 6.3 ESE 9 11 5 6 1021.0 1019.6 0.0
17/07:00pm 14.7 10.9 -1.0 34 6.6 ESE 9 11 5 6 1021.0 1019.6 0.0
17/06:30pm 16.0 12.1 -1.5 30 7.4 ESE 9 13 5 7 1020.7 1019.3 0.0
17/06:00pm 17.2 13.3 -1.4 28 7.9 ESE 9 11 5 6 1020.3 1018.8 0.0
17/05:30pm 19.1 14.8 -1.9 24 9.1 ESE 11 13 6 7 1019.7 1018.3 0.0
17/05:00pm 20.9 15.8 -1.6 22 9.9 ESE 15 19 8 10 1019.4 1018.0 0.0
17/04:30pm 22.4 16.3 -2.3 19 10.9 ESE 20 24 11 13 1019.1 1017.7 0.0
17/04:00pm 23.4 17.5 -2.2 18 11.4 ESE 19 30 10 16 1018.9 1017.5 0.0
17/03:30pm 23.5 16.7 -2.2 18 11.4 ESE 24 30 13 16 1018.7 1017.3 0.0
17/03:00pm 23.9 17.5 -1.8 18 11.5 E 22 32 12 17 1018.6 1017.2 0.0
17/02:30pm 24.0 18.0 -1.8 18 11.6 ESE 20 28 11 15 1018.6 1017.2 0.0
17/02:00pm 23.7 17.3 -2.0 18 11.5 E 22 39 12 21 1018.6 1017.2 0.0
17/01:30pm 24.1 18.1 -1.7 18 11.7 ESE 20 32 11 17 1018.9 1017.5 0.0
17/01:00pm 23.9 17.9 -1.8 18 11.5 ESE 20 33 11 18 1019.3 1017.9 0.0
17/12:30pm 23.8 17.5 -1.2 19 11.4 E 22 35 12 19 1019.8 1018.4 0.0
17/12:00pm 23.2 17.5 -1.0 20 11.0 E 19 35 10 19 1020.5 1019.1 0.0
17/11:30am 22.5 16.1 -1.6 20 10.8 E 22 35 12 19 1021.1 1019.7 0.0
17/11:00am 22.2 15.1 -1.1 21 10.4 E 26 39 14 21 1021.7 1020.3 0.0
17/10:30am 21.7 15.0 -0.9 22 10.2 E 24 37 13 20 1022.3 1020.9 0.0
17/10:00am 21.3 14.5 0.5 25 9.5 E 26 37 14 20 1022.9 1021.5 0.0
17/09:30am 20.6 12.6 0.4 26 9.2 E 32 39 17 21 1023.2 1021.8 0.0
17/09:00am 19.1 12.3 0.7 29 8.3 E 26 37 14 20 1023.4 1022.0 0.0
17/08:30am 18.2 12.1 0.4 30 8.0 E 22 32 12 17 1023.4 1022.0 0.0
17/08:00am 17.4 11.0 1.0 33 7.4 E 24 33 13 18 1023.2 1021.8 0.0
17/07:30am 16.1 9.7 1.0 36 6.7 E 24 37 13 20 1023.1 1021.7 0.0
17/07:00am 15.3 10.7 1.4 39 6.2 ESE 15 20 8 11 1022.6 1021.3 0.0
17/06:30am 14.0 9.7 1.3 42 5.6 ESE 13 17 7 9 1022.1 1020.7 0.0
17/06:00am 13.8 8.4 1.1 42 5.5 ESE 19 24 10 13 1021.6 1020.2 0.0
17/05:30am 14.0 8.6 1.3 42 5.6 ESE 19 24 10 13 1021.2 1019.8 0.0
17/05:00am 13.7 9.1 1.7 44 5.3 ESE 15 22 8 12 1021.0 1019.6 0.0
17/04:30am 13.0 8.9 2.3 48 4.8 ESE 13 17 7 9 1020.7 1019.3 0.0
17/04:00am 12.0 9.0 2.2 51 4.3 E 7 11 4 6 1020.4 1019.0 0.0
17/03:30am 11.4 8.5 2.4 54 4.0 ESE 7 9 4 5 1020.1 1018.7 0.0
17/03:00am 11.9 8.5 2.1 51 4.3 E 9 9 5 5 1020.0 1018.6 0.0
17/02:30am 13.3 10.0 2.2 47 5.0 E 9 11 5 6 1020.1 1018.7 0.0
17/02:00am 12.9 9.6 2.2 48 4.7 ESE 9 11 5 6 1020.1 1018.7 0.0
17/01:30am 13.7 10.4 2.3 46 5.1 ESE 9 11 5 6 1020.1 1018.7 0.0
17/01:00am 14.5 11.6 2.4 44 5.5 E 7 9 4 5 1020.3 1018.8 0.0
17/12:30am 15.1 11.8 2.3 42 5.8 E 9 11 5 6 1020.5 1019.1 0.0
17/12:00am 16.2 12.9 2.2 39 6.4 E 9 15 5 8 1020.5 1019.1 0.0
 
Date/Time
WST
Temp
°C
App
Temp
°C
Dew
Point
°C
Rel
Hum
%
Delta-T
°C
Wind Press
QNH
hPa
Press
MSL
hPa
Rain since
9am
mm
Dir  Spd
km/h
Gust
km/h
Spd
kts
Gust
kts
16/11:30pm 16.8 13.1 2.4 38 6.7 E 11 17 6 9 1020.4 1019.0 0.0

Other formats

Comma delimited format used in spreadsheet applications
http://www.bom.gov.au/fwo/IDW60801/IDW60801.94212.axf

JavaScript Object Notation format (JSON) in row-major order
http://www.bom.gov.au/fwo/IDW60801/IDW60801.94212.json

Data quality

Most of these data are generated automatically and are frequently updated. Quality checks on data are not normally performed. It is possible for incorrect values to appear. Refer to information at About Latest Weather Observations and please check the disclaimer before using these data.